Latest Weather Observations for Tindal

IDD60801

Issued at 11:35 pm CST Monday 1 September 2014 (issued every 30 minutes, with the page automatically refreshed every 10 minutes)

About weather observations | Map of weather stations | Latest weather observations for NT | Other Formats
Station Details ID: 014932 Name: TINDAL RAAF Lat: -14.52 Lon: 132.38 Height: 133.6 m
Data from the previous 72 hours. | See also: Recent months at Tindal
Date/Time
CST
Temp
°C
App
Temp
°C
Dew
Point
Rel
Hum
%
Delta-T
°C
Wind Press
QNH
hPa
Press
MSL
hPa
Rain
since 9 am
mm
Dir
 
Spd
km/h
Gust
km/h
Spd
kts
Gust
kts
01/11:30pm 17.1 15.2 6.9 51 5.1 E 6 7 3 4 1014.8 - 0.0
01/11:00pm 18.2 16.2 7.0 48 5.6 SSE 7 9 4 5 1014.8 - 0.0
01/10:30pm 18.4 16.4 6.9 47 5.8 SSE 7 9 4 5 1014.7 - 0.0
01/10:00pm 19.2 16.8 7.0 45 6.2 SSE 9 9 5 5 1014.4 - 0.0
01/09:30pm 20.7 18.2 6.6 40 7.2 SSE 9 11 5 6 1014.3 - 0.0
01/09:00pm 21.9 19.6 5.8 35 8.1 E 7 9 4 5 1014.0 1013.2 0.0
01/08:30pm 22.6 20.0 6.0 34 8.5 E 9 11 5 6 1013.7 - 0.0
01/08:00pm 23.4 20.7 5.8 32 9.0 ESE 9 11 5 6 1013.5 - 0.0
01/07:30pm 26.7 23.9 5.1 25 11.1 E 9 11 5 6 1013.1 - 0.0
01/07:00pm 27.7 24.4 4.7 23 11.8 E 11 13 6 7 1012.6 - 0.0
01/06:30pm 29.3 25.4 3.3 19 13.2 ESE 13 17 7 9 1012.5 - 0.0
01/06:00pm 31.5 26.3 3.5 17 14.4 ESE 20 26 11 14 1012.2 1011.3 0.0
01/05:30pm 32.4 27.2 2.5 15 15.2 ESE 19 24 10 13 1012.0 - 0.0
01/05:00pm 33.0 27.7 2.9 15 15.5 SE 20 30 11 16 1011.8 - 0.0
01/04:30pm 33.2 29.5 2.1 14 15.8 SE 11 17 6 9 1011.7 - 0.0
01/04:00pm 34.0 28.9 2.8 14 16.1 E 19 26 10 14 1011.8 - 0.0
01/03:30pm 33.8 28.2 3.6 15 15.8 ESE 22 35 12 19 1012.0 - 0.0
01/03:00pm 32.8 29.2 2.8 15 15.4 E 11 20 6 11 1012.2 1011.3 0.0
01/02:30pm 33.4 28.2 3.3 15 15.6 SSE 20 28 11 15 1012.7 - 0.0
01/02:00pm 32.6 27.4 3.5 16 15.1 ESE 20 30 11 16 1013.3 - 0.0
01/01:30pm 32.0 29.0 3.9 17 14.6 S 9 17 5 9 1013.7 - 0.0
01/01:00pm 32.1 29.1 4.0 17 14.6 SSE 9 13 5 7 1014.3 - 0.0
01/12:30pm 30.9 27.3 6.7 22 13.1 SE 15 26 8 14 1014.8 - 0.0
01/12:00pm 29.9 27.7 7.7 25 12.1 SSE 9 24 5 13 1015.6 1014.8 0.0
01/11:30am 29.5 28.2 10.1 30 11.0 ENE 7 15 4 8 1016.2 - 0.0
01/11:00am 27.9 26.2 9.7 32 10.2 NE 9 15 5 8 1016.8 - 0.0
01/10:30am 26.7 26.0 12.0 40 8.5 N 7 13 4 7 1017.3 - 0.0
01/10:00am 25.5 25.0 12.0 43 7.8 WSW 6 11 3 6 1017.6 - 0.0
01/09:30am 24.6 24.8 12.9 48 6.8 N 4 9 2 5 1017.6 - 0.0
01/09:00am 22.3 20.2 6.5 36 8.1 SE 7 9 4 5 1017.3 1016.4 0.0
01/08:30am 19.0 17.1 5.1 40 6.8 SE 4 7 2 4 1017.0 - 0.0
01/08:00am 16.4 14.0 4.4 45 5.7 S 6 7 3 4 1016.8 - 0.0
01/07:30am 13.4 11.3 5.6 59 3.7 ESE 6 7 3 4 1016.6 - 0.0
01/07:00am 11.4 8.9 4.6 63 3.1 SE 7 7 4 4 1016.2 - 0.0
01/06:30am 12.8 11.5 4.3 56 3.9 CALM 0 0 0 0 1015.6 - 0.0
01/06:00am 13.7 12.3 3.8 51 4.5 CALM 0 0 0 0 1015.2 1014.4 0.0
01/05:30am 13.6 11.1 3.7 51 4.5 ESE 6 7 3 4 1015.0 - 0.0
01/05:00am 14.1 10.9 3.3 48 4.9 SE 9 11 5 6 1014.8 - 0.0
01/04:30am 14.7 13.2 2.9 45 5.3 CALM 0 4 0 2 1014.6 - 0.0
01/04:00am 14.7 11.9 2.9 45 5.3 ESE 7 11 4 6 1014.1 - 0.0
01/03:30am 14.7 11.5 3.2 46 5.2 SE 9 11 5 6 1014.1 - 0.0
01/03:00am 14.3 10.7 3.2 47 5.0 SE 11 13 6 7 1013.9 1013.1 0.0
01/02:30am 14.4 10.8 3.2 47 5.1 SE 11 13 6 7 1013.8 - 0.0
01/02:00am 13.5 10.0 3.6 51 4.5 S 11 17 6 9 1013.6 - 0.0
01/01:30am 13.9 12.2 4.2 52 4.5 S 2 6 1 3 1013.4 - 0.0
01/01:00am 14.5 12.7 3.6 48 5.0 S 2 9 1 5 1013.4 - 0.0
01/12:30am 15.5 12.8 3.9 46 5.4 NE 7 9 4 5 1013.4 - 0.0
01/12:00am 15.7 13.5 3.5 44 5.6 E 4 7 2 4 1013.2 1012.4 0.0
 
Date/Time
CST
Temp
°C
App
Temp
°C
Dew
Point
Rel
Hum
%
Delta-T
°C
Wind Press
QNH
hPa
Press
MSL
hPa
Rain
since 9 am
mm
Dir
 
Spd
km/h
Gust
km/h
Spd
kts
Gust
kts
31/11:30pm 15.3 11.9 4.1 47 5.2 SSE 11 13 6 7 1013.1 - 0.0
31/11:00pm 16.2 13.2 3.9 44 5.7 SSE 9 11 5 6 1013.3 - 0.0
31/10:30pm 16.8 13.7 3.8 42 6.1 SSE 9 11 5 6 1013.2 - 0.0
31/10:04pm 18.4 15.6 3.1 36 7.1 SSE 7 9 4 5 1013.5 - 0.0
31/10:00pm 18.5 15.3 3.2 36 7.2 SSE 9 9 5 5 1013.5 - 0.0
31/09:30pm 18.4 15.2 3.1 36 7.1 SE 9 9 5 5 1013.5 - 0.0
31/09:26pm 18.5 15.3 3.2 36 7.2 SE 9 11 5 6 1013.5 - 0.0
31/09:11pm 18.1 14.2 3.6 38 6.8 SSE 13 13 7 7 1013.3 - 0.0
31/09:00pm 18.9 15.3 3.1 35 7.4 SSE 11 11 6 6 1013.2 1012.7 0.0
31/08:55pm 19.1 15.6 3.3 35 7.5 SSE 11 11 6 6 1013.2 - 0.0
31/08:30pm 20.1 16.9 2.9 32 8.1 ESE 9 9 5 5 1013.0 - 0.0
31/08:00pm 21.6 18.7 2.8 29 8.9 SE 7 9 4 5 1012.7 - 0.0
31/07:30pm 24.3 21.3 1.9 23 10.7 E 7 7 4 4 1012.3 - 0.0
31/07:00pm 27.4 23.7 0.2 17 12.9 ESE 9 11 5 6 1012.0 - 0.0
31/06:30pm 28.8 24.2 -1.3 14 14.0 ESE 13 19 7 10 1011.7 - 0.0
31/06:00pm 30.9 25.4 -1.8 12 15.3 ESE 17 20 9 11 1011.5 1010.9 0.0
31/05:30pm 31.9 26.4 -2.2 11 16.0 SSE 17 20 9 11 1011.4 - 0.0
31/05:00pm 32.4 25.4 -3.1 10 16.5 SE 24 30 13 16 1011.1 - 0.0
31/04:30pm 32.7 27.6 -1.6 11 16.3 ESE 15 24 8 13 1011.2 - 0.0
31/04:00pm 32.6 26.2 -1.7 11 16.3 ESE 22 30 12 16 1011.1 - 0.0
31/03:30pm 32.5 26.5 -3.0 10 16.5 SE 19 32 10 17 1011.5 - 0.0
31/03:00pm 33.3 27.2 -2.4 10 16.9 ESE 20 24 11 13 1011.8 1011.2 0.0
31/02:30pm 32.0 26.9 -2.1 11 16.0 E 15 20 8 11 1012.1 - 0.0
31/02:00pm 31.9 25.7 -3.5 10 16.2 E 20 28 11 15 1012.6 - 0.0
31/01:30pm 31.2 25.1 -4.0 10 15.9 SE 19 35 10 19 1013.0 - 0.0
31/01:00pm 31.2 26.4 -2.7 11 15.7 SE 13 15 7 8 1013.6 - 0.0
31/12:30pm 31.3 25.4 -2.6 11 15.7 ENE 19 26 10 14 1014.1 - 0.0
31/12:00pm 31.1 24.3 -1.6 12 15.4 SE 24 30 13 16 1014.7 1014.2 0.0
31/11:30am 30.2 25.0 -0.2 14 14.6 E 17 26 9 14 1015.4 - 0.0
31/11:00am 29.0 25.4 0.7 16 13.7 SE 9 19 5 10 1016.2 - 0.0
31/10:30am 27.1 23.8 2.2 20 12.2 ESE 9 17 5 9 1016.6 - 0.0
31/10:00am 25.6 22.8 2.9 23 11.1 SE 7 15 4 8 1016.9 - 0.0
31/09:30am 24.1 21.0 3.4 26 10.1 SE 9 13 5 7 1017.1 - 0.0
31/09:00am 22.0 18.9 3.6 30 8.9 SE 9 11 5 6 1016.9 1016.3 0.0
31/08:30am 19.3 17.5 3.5 35 7.5 SE 2 6 1 3 1016.6 - 0.0
31/08:00am 15.8 13.1 3.9 45 5.5 SE 7 9 4 5 1016.4 - 0.0
31/07:30am 12.0 9.6 4.5 60 3.4 SE 6 7 3 4 1016.0 - 0.0
31/07:00am 10.2 7.7 3.5 63 2.9 SSE 6 7 3 4 1015.6 - 0.0
31/06:30am 11.8 9.2 3.3 56 3.8 NW 6 7 3 4 1015.5 - 0.0
31/06:00am 11.4 8.2 2.9 56 3.7 NW 9 11 5 6 1015.0 1014.5 0.0
31/05:30am 12.6 9.7 2.7 51 4.4 SSE 7 7 4 4 1014.5 - 0.0
31/05:00am 13.1 10.2 2.6 49 4.6 SE 7 9 4 5 1014.6 - 0.0
31/04:30am 12.4 8.8 2.8 52 4.2 SE 11 13 6 7 1014.5 - 0.0
31/04:00am 12.8 9.5 2.6 50 4.5 SE 9 11 5 6 1014.3 - 0.0
31/03:30am 13.7 10.4 2.6 47 4.9 SE 9 11 5 6 1014.4 - 0.0
31/03:00am 14.5 11.2 2.7 45 5.3 SE 9 9 5 5 1014.3 1013.8 0.0
31/02:30am 14.7 11.0 2.6 44 5.4 SE 11 13 6 7 1014.3 - 0.0
31/02:00am 15.7 12.7 2.2 40 6.1 SE 7 9 4 5 1014.4 - 0.0
31/01:30am 16.1 12.7 1.8 38 6.4 SSE 9 11 5 6 1014.4 - 0.0
31/01:00am 18.6 14.1 2.0 33 7.6 ESE 15 17 8 9 1014.5 - 0.0
31/12:30am 19.8 14.7 3.1 33 7.9 E 19 24 10 13 1014.6 - 0.0
31/12:00am 16.6 13.1 3.3 41 6.1 SSE 11 13 6 7 1014.2 1013.7 0.0
 
Date/Time
CST
Temp
°C
App
Temp
°C
Dew
Point
Rel
Hum
%
Delta-T
°C
Wind Press
QNH
hPa
Press
MSL
hPa
Rain
since 9 am
mm
Dir
 
Spd
km/h
Gust
km/h
Spd
kts
Gust
kts
30/11:30pm 17.4 13.8 3.0 38 6.7 SSE 11 13 6 7 1014.2 - 0.0
30/11:00pm 17.4 13.8 3.0 38 6.7 SE 11 13 6 7 1014.3 - 0.0
30/10:30pm 18.2 14.9 2.5 35 7.2 SE 9 11 5 6 1014.3 - 0.0
30/10:00pm 18.5 14.5 2.8 35 7.3 SE 13 15 7 8 1014.1 - 0.0
30/09:30pm 19.3 16.5 3.1 34 7.6 SSE 7 7 4 4 1014.0 - 0.0
30/09:00pm 18.9 15.7 3.1 35 7.4 S 9 11 5 6 1013.9 1013.4 0.0
30/08:30pm 20.3 17.2 3.5 33 8.0 S 9 11 5 6 1013.7 - 0.0
30/08:00pm 21.4 18.2 3.1 30 8.7 S 9 11 5 6 1013.4 - 0.0
30/07:30pm 23.2 20.6 3.2 27 9.7 ESE 6 7 3 4 1013.0 - 0.0
30/07:00pm 26.1 22.9 0.7 19 12.0 SE 7 9 4 5 1012.7 - 0.0
30/06:30pm 28.6 24.8 -0.5 15 13.7 SE 9 11 5 6 1012.5 - 0.0
30/06:00pm 30.5 25.4 -2.1 12 15.2 ESE 15 20 8 11 1012.3 1011.7 0.0
30/05:30pm 31.4 25.8 -2.6 11 15.8 ESE 17 24 9 13 1012.1 - 0.0
30/05:00pm 32.0 25.9 -2.1 11 16.0 SSE 20 24 11 13 1011.9 - 0.0
30/04:30pm 32.2 27.9 -2.0 11 16.1 ESE 11 15 6 8 1011.9 - 0.0
30/04:00pm 32.2 26.9 -3.2 10 16.4 ESE 15 30 8 16 1011.8 - 0.0
30/03:30pm 32.1 26.5 -3.3 10 16.3 SE 17 28 9 15 1012.1 - 0.0
30/03:00pm 32.0 25.5 -2.1 11 16.0 E 22 32 12 17 1012.4 1011.8 0.0
30/02:30pm 32.7 25.6 -1.6 11 16.3 SE 26 32 14 17 1012.8 - 0.0
30/02:00pm 31.5 25.6 -2.5 11 15.8 S 19 32 10 17 1013.4 - 0.0
30/01:30pm 31.3 26.3 -1.5 12 15.5 E 15 24 8 13 1014.1 - 0.0
30/01:00pm 30.9 24.1 -1.8 12 15.3 ESE 24 33 13 18 1014.7 - 0.0
30/12:30pm 31.1 26.2 -0.5 13 15.2 ESE 15 20 8 11 1015.4 - 0.0
30/12:00pm 29.9 23.3 -0.5 14 14.4 ESE 24 33 13 18 1016.2 1015.6 0.0
30/11:30am 29.3 23.4 -0.9 14 14.2 E 20 35 11 19 1016.7 - 0.0
30/11:00am 29.1 24.5 1.6 17 13.5 E 15 28 8 15 1017.2 - 0.0
30/10:30am 28.0 23.5 2.2 19 12.7 E 15 24 8 13 1017.5 - 0.0
30/10:00am 25.5 22.5 4.0 25 10.8 ESE 9 15 5 8 1017.8 - 0.0
30/09:30am 22.4 18.6 4.0 30 9.0 SE 13 17 7 9 1017.7 - 0.0
30/09:00am 20.2 16.3 3.4 33 8.0 SE 13 17 7 9 1017.8 1017.2 0.0
30/08:30am 18.1 14.4 2.4 35 7.2 SE 11 15 6 8 1017.7 - 0.0
30/08:00am 15.1 12.3 3.3 45 5.4 SE 7 7 4 4 1017.7 - 0.0
30/07:30am 11.6 8.8 3.4 57 3.6 SE 7 11 4 6 1017.2 - 0.0
30/07:00am 9.2 6.5 2.8 64 2.7 E 6 7 3 4 1016.8 - 0.0
30/06:30am 10.1 7.4 2.7 60 3.2 E 6 7 3 4 1016.6 - 0.0
30/06:00am 10.9 8.9 2.5 56 3.6 NE 2 6 1 3 1016.4 1015.8 0.0
30/05:30am 12.0 9.5 1.6 49 4.5 NE 4 6 2 3 1015.9 - 0.0
30/05:00am 12.0 8.9 1.6 49 4.5 NNE 7 9 4 5 1015.6 - 0.0
30/04:30am 14.1 11.0 1.4 42 5.5 E 7 9 4 5 1015.3 - 0.0
30/04:00am 13.0 9.5 1.4 45 5.0 ESE 9 13 5 7 1015.3 - 0.0
30/03:30am 12.6 9.1 1.0 45 4.9 SE 9 11 5 6 1015.1 - 0.0
30/03:00am 12.3 7.7 1.6 48 4.6 S 15 17 8 9 1015.2 1014.7 0.0
30/02:30am 13.1 9.3 1.5 45 5.0 S 11 13 6 7 1015.1 - 0.0
30/02:00am 14.3 11.1 0.5 39 5.9 SSE 7 9 4 5 1015.1 - 0.0
30/01:30am 13.5 10.1 1.8 45 5.1 SSE 9 11 5 6 1015.1 - 0.0
30/01:00am 15.3 11.7 0.7 37 6.3 S 9 13 5 7 1015.2 - 0.0
30/12:30am 15.4 11.8 0.8 37 6.3 SSE 9 11 5 6 1015.1 - 0.0
30/12:00am 13.4 10.1 2.3 47 4.9 ESE 9 15 5 8 1015.1 1014.6 0.0

Other Formats:

Comma delimited format used in spreadsheet applications
http://www.bom.gov.au/fwo/IDD60801/IDD60801.94131.axf

JavaScript Object Notation format (JSON) in row-major order
http://www.bom.gov.au/fwo/IDD60801/IDD60801.94131.json